createdAt,value
2019-05-14T00:00:24.435Z,3.90
2019-05-14T00:02:54.840Z,3.53
2019-05-14T00:05:24.986Z,3.57
2019-05-14T00:07:55.140Z,3.60
2019-05-14T00:10:26.450Z,3.70
2019-05-14T00:12:56.747Z,3.90
2019-05-14T00:15:26.742Z,3.40
2019-05-14T00:17:56.879Z,3.90
2019-05-14T00:20:26.943Z,3.47
2019-05-14T00:22:57.334Z,5.33
2019-05-14T00:25:27.666Z,3.90
2019-05-14T00:27:57.831Z,3.60
2019-05-14T00:30:27.896Z,4.03
2019-05-14T00:32:58.210Z,3.97
2019-05-14T00:35:32.003Z,3.90
2019-05-14T00:38:01.689Z,4.30
2019-05-14T00:40:31.869Z,3.90
2019-05-14T00:43:02.763Z,4.87
2019-05-14T00:45:33.123Z,4.30
2019-05-14T00:48:03.206Z,4.40
2019-05-14T00:50:33.255Z,4.10
2019-05-14T00:53:03.441Z,4.23
2019-05-14T00:55:34.061Z,4.33
2019-05-14T00:58:05.162Z,4.50
2019-05-14T01:00:35.350Z,4.60
2019-05-14T01:03:05.883Z,4.40
2019-05-14T01:05:36.019Z,4.13
2019-05-14T01:08:06.302Z,4.20
2019-05-14T01:10:36.652Z,4.53
2019-05-14T01:13:07.069Z,4.23
2019-05-14T01:15:37.136Z,4.33
2019-05-14T01:18:07.217Z,5.10
2019-05-14T01:20:37.695Z,4.40
2019-05-14T01:23:07.918Z,4.40
2019-05-14T01:25:38.437Z,5.30
2019-05-14T01:28:11.138Z,4.73
2019-05-14T01:30:41.189Z,4.67
2019-05-14T01:33:11.968Z,4.78
2019-05-14T01:35:42.214Z,4.50
2019-05-14T01:38:12.375Z,4.60
2019-05-14T01:40:44.139Z,5.63
2019-05-14T01:43:14.185Z,4.60
2019-05-14T01:45:44.359Z,4.73
2019-05-14T01:48:14.750Z,5.23
2019-05-14T01:50:48.755Z,4.70
2019-05-14T01:53:19.012Z,5.20
2019-05-14T01:55:49.165Z,4.37
2019-05-14T01:58:21.891Z,4.47
2019-05-14T02:00:52.274Z,5.70
2019-05-14T02:03:24.257Z,4.80
2019-05-14T02:05:55.468Z,4.87
2019-05-14T02:08:27.253Z,5.23
2019-05-14T02:10:58.443Z,4.93
2019-05-14T02:13:31.927Z,4.40
2019-05-14T02:16:01.914Z,4.25
2019-05-14T02:18:32.679Z,4.37
2019-05-14T02:21:03.235Z,4.70
2019-05-14T02:23:33.625Z,4.87
2019-05-14T02:26:05.537Z,5.30
2019-05-14T02:28:35.961Z,5.10
2019-05-14T02:31:09.130Z,5.20
2019-05-14T02:33:39.658Z,4.93
2019-05-14T02:36:10.680Z,4.85
2019-05-14T02:38:40.976Z,4.97
2019-05-14T02:41:11.063Z,5.37
2019-05-14T02:43:41.242Z,4.63
2019-05-14T02:46:16.973Z,5.30
2019-05-14T02:48:43.280Z,4.40
2019-05-14T02:51:13.476Z,4.80
2019-05-14T02:53:44.691Z,5.00
2019-05-14T02:56:15.166Z,4.77
2019-05-14T02:58:45.342Z,5.00
2019-05-14T03:01:15.406Z,5.60
2019-05-14T03:03:45.575Z,5.70
2019-05-14T03:06:19.755Z,5.20
2019-05-14T03:08:49.397Z,5.77
2019-05-14T03:11:20.204Z,4.40
2019-05-14T03:13:50.679Z,5.00
2019-05-14T03:16:30.324Z,5.60
2019-05-14T03:18:52.559Z,6.03
2019-05-14T03:21:22.861Z,5.30
2019-05-14T03:23:53.358Z,4.60
2019-05-14T03:26:23.570Z,5.20
2019-05-14T03:28:53.625Z,5.40
2019-05-14T03:31:24.065Z,5.50
2019-05-14T03:33:54.614Z,6.27
2019-05-14T03:36:26.914Z,5.40
2019-05-14T03:38:59.215Z,5.30
2019-05-14T03:41:30.545Z,5.50
2019-05-14T03:44:01.491Z,5.25
2019-05-14T03:46:45.870Z,5.17
2019-05-14T03:49:03.573Z,5.87
2019-05-14T03:51:33.640Z,5.30
2019-05-14T03:54:07.708Z,5.70
2019-05-14T03:56:35.647Z,4.97
2019-05-14T03:59:08.572Z,5.37
2019-05-14T04:01:40.018Z,6.03
2019-05-14T04:04:10.406Z,6.77
2019-05-14T04:06:43.263Z,5.30
2019-05-14T04:09:15.803Z,4.87
2019-05-14T04:11:50.168Z,5.20
2019-05-14T04:14:22.679Z,5.58
2019-05-14T04:17:08.118Z,5.50
2019-05-14T04:19:29.945Z,5.80
2019-05-14T04:22:04.914Z,5.67
2019-05-14T04:24:41.422Z,5.90
2019-05-14T04:27:13.259Z,6.67
2019-05-14T04:29:44.648Z,6.37
2019-05-14T04:32:15.560Z,5.80
2019-05-14T04:34:45.977Z,7.10
2019-05-14T04:37:19.957Z,7.30
2019-05-14T04:39:50.439Z,7.00
2019-05-14T04:42:20.721Z,6.37
2019-05-14T04:44:51.121Z,6.00
2019-05-14T04:47:31.308Z,5.70
2019-05-14T04:49:53.822Z,6.33
2019-05-14T04:52:25.738Z,6.17
2019-05-14T04:54:59.450Z,5.83
2019-05-14T04:57:30.144Z,5.20
2019-05-14T05:00:02.437Z,5.30
2019-05-14T05:02:33.839Z,6.00
2019-05-14T05:05:04.402Z,5.40
2019-05-14T05:07:34.757Z,4.63
2019-05-14T05:10:05.581Z,5.87
2019-05-14T05:12:38.757Z,5.43
2019-05-14T05:15:09.673Z,5.70
2019-05-14T05:17:48.059Z,5.40
2019-05-14T05:20:12.197Z,5.70
2019-05-14T05:22:42.637Z,5.60
2019-05-14T05:25:15.445Z,5.43
2019-05-14T05:27:45.635Z,4.97
2019-05-14T05:30:18.840Z,4.97
2019-05-14T05:32:49.391Z,5.47
2019-05-14T05:35:20.231Z,5.43
2019-05-14T05:37:50.630Z,4.93
2019-05-14T05:40:20.811Z,5.13
2019-05-14T05:42:50.993Z,5.30
2019-05-14T05:45:20.974Z,5.50
2019-05-14T05:47:57.780Z,5.10
2019-05-14T05:50:22.985Z,4.10
2019-05-14T05:52:53.881Z,4.53
2019-05-14T05:55:24.219Z,4.77
2019-05-14T05:57:54.311Z,5.17
2019-05-14T06:00:35.886Z,5.50
2019-05-14T06:03:10.223Z,4.33
2019-05-14T06:05:38.865Z,4.13
2019-05-14T06:08:09.384Z,4.10
2019-05-14T06:10:40.046Z,4.57
2019-05-14T06:13:13.833Z,4.20
2019-05-14T06:15:48.298Z,4.40
2019-05-14T06:18:18.393Z,4.00
2019-05-14T06:20:48.818Z,3.67
2019-05-14T06:23:18.874Z,3.53
2019-05-14T06:25:49.436Z,3.70
2019-05-14T06:28:21.218Z,3.70
2019-05-14T06:30:51.507Z,4.30
2019-05-14T06:33:21.929Z,4.10
2019-05-14T06:35:52.052Z,4.90
2019-05-14T06:38:22.165Z,4.70
2019-05-14T06:40:52.334Z,3.80
2019-05-14T06:43:22.902Z,3.93
2019-05-14T06:45:53.023Z,4.20
2019-05-14T06:48:30.762Z,3.70
2019-05-14T06:50:54.969Z,4.10
2019-05-14T06:53:25.056Z,3.73
2019-05-14T06:55:55.211Z,3.30
2019-05-14T06:58:25.468Z,3.93
2019-05-14T07:00:58.704Z,3.80
2019-05-14T07:03:28.528Z,3.23
2019-05-14T07:05:59.562Z,3.43
2019-05-14T07:08:30.035Z,3.53
2019-05-14T07:11:00.143Z,3.80
2019-05-14T07:13:30.289Z,3.17
2019-05-14T07:16:00.448Z,3.63
2019-05-14T07:18:45.741Z,3.70
2019-05-14T07:21:02.582Z,3.37
2019-05-14T07:23:33.175Z,3.90
2019-05-14T07:26:03.423Z,3.30
2019-05-14T07:28:33.525Z,3.70
2019-05-14T07:31:03.664Z,3.13
2019-05-14T07:33:33.811Z,3.03
2019-05-14T07:36:04.354Z,3.30
2019-05-14T07:38:34.414Z,3.47
2019-05-14T07:41:04.557Z,3.90
2019-05-14T07:43:34.681Z,4.30
2019-05-14T07:46:04.822Z,4.00
2019-05-14T07:48:35.129Z,3.43
2019-05-14T07:51:05.395Z,3.07
2019-05-14T07:53:41.464Z,4.20
2019-05-14T07:56:09.462Z,3.80
2019-05-14T07:58:39.277Z,3.60
2019-05-14T08:01:10.721Z,3.80
2019-05-14T08:03:42.323Z,3.30
2019-05-14T08:06:12.485Z,3.17
2019-05-14T08:08:42.659Z,3.10
2019-05-14T08:11:12.888Z,2.97
2019-05-14T08:13:43.245Z,3.60
2019-05-14T08:16:13.731Z,3.90
2019-05-14T08:18:43.855Z,3.60
2019-05-14T08:21:14.053Z,3.20
2019-05-14T08:23:44.632Z,3.03
2019-05-14T08:26:14.882Z,2.90
2019-05-14T08:28:45.252Z,2.83
2019-05-14T08:31:15.487Z,2.73
2019-05-14T08:33:45.689Z,2.97
2019-05-14T08:36:18.171Z,3.20
2019-05-14T08:38:49.958Z,3.13
2019-05-14T08:41:20.077Z,3.30
2019-05-14T08:43:50.460Z,3.60
2019-05-14T08:46:20.675Z,4.60
2019-05-14T08:48:50.788Z,3.73
2019-05-14T08:51:21.113Z,4.70
2019-05-14T08:53:51.422Z,4.83
2019-05-14T08:56:21.571Z,4.50
2019-05-14T08:58:51.794Z,4.10
2019-05-14T09:01:21.915Z,5.20
2019-05-14T09:03:52.109Z,4.77
2019-05-14T09:06:22.505Z,4.40
2019-05-14T09:08:52.672Z,4.13
2019-05-14T09:11:25.499Z,3.70
2019-05-14T09:13:54.589Z,4.33
2019-05-14T09:16:38.461Z,3.70
2019-05-14T09:18:58.187Z,4.10
2019-05-14T09:21:29.626Z,3.63
2019-05-14T09:24:00.130Z,4.10
2019-05-14T09:26:30.411Z,3.50
2019-05-14T09:29:17.924Z,3.87
2019-05-14T09:31:32.624Z,3.63
2019-05-14T09:34:02.915Z,3.90
2019-05-14T09:36:33.028Z,3.00
2019-05-14T09:39:04.852Z,3.73
2019-05-14T09:41:35.029Z,3.93
2019-05-14T09:44:05.211Z,3.90
2019-05-14T09:46:35.614Z,4.00
2019-05-14T09:49:07.890Z,3.90
2019-05-14T09:51:38.374Z,3.87
2019-05-14T09:54:08.847Z,3.80
2019-05-14T09:56:39.625Z,3.00
2019-05-14T09:59:09.899Z,4.27
2019-05-14T10:01:40.004Z,3.63
2019-05-14T10:04:11.658Z,4.70
2019-05-14T10:06:42.163Z,3.60
2019-05-14T10:09:12.268Z,3.37
2019-05-14T10:11:42.711Z,4.00
2019-05-14T10:14:12.847Z,3.97
2019-05-14T10:16:42.951Z,3.20
2019-05-14T10:19:13.278Z,4.20
2019-05-14T10:21:43.441Z,4.00
2019-05-14T10:24:14.084Z,3.87
2019-05-14T10:26:44.168Z,4.70
2019-05-14T10:29:14.348Z,4.23
2019-05-14T10:31:44.690Z,3.60
2019-05-14T10:34:15.065Z,4.13
2019-05-14T10:36:45.224Z,3.90
2019-05-14T10:39:15.476Z,3.93
2019-05-14T10:41:45.899Z,4.40
2019-05-14T10:44:18.517Z,4.93
2019-05-14T10:46:47.946Z,4.77
2019-05-14T10:49:23.402Z,4.47
2019-05-14T10:51:49.965Z,5.67
2019-05-14T10:54:25.239Z,5.10
2019-05-14T10:56:51.871Z,6.43
2019-05-14T10:59:22.268Z,5.60
2019-05-14T11:01:52.443Z,5.17
2019-05-14T11:04:22.574Z,4.27
2019-05-14T11:06:52.986Z,4.10
2019-05-14T11:09:23.186Z,4.33
2019-05-14T11:11:53.244Z,5.60
2019-05-14T11:14:23.378Z,3.90
2019-05-14T11:16:53.520Z,4.80
2019-05-14T11:19:23.893Z,6.43
2019-05-14T11:21:54.094Z,6.17
2019-05-14T11:24:24.281Z,5.90
2019-05-14T11:26:54.445Z,6.63
2019-05-14T11:29:24.541Z,6.07
2019-05-14T11:31:54.977Z,6.23
2019-05-14T11:34:25.447Z,5.60
2019-05-14T11:36:55.592Z,4.47
2019-05-14T11:39:32.466Z,4.90
2019-05-14T11:42:19.772Z,4.57
2019-05-14T11:44:48.751Z,5.23
2019-05-14T11:47:18.660Z,3.57
2019-05-14T11:50:19.848Z,3.83
2019-05-14T11:52:49.233Z,3.17
2019-05-14T11:55:19.523Z,3.53
2019-05-14T11:57:49.702Z,2.70
2019-05-14T12:00:34.162Z,2.60
2019-05-14T12:03:04.375Z,2.77
2019-05-14T12:05:34.571Z,2.63
2019-05-14T12:08:04.663Z,2.60
2019-05-14T12:10:34.772Z,3.13
2019-05-14T12:13:04.872Z,2.93
2019-05-14T12:15:35.303Z,3.00
2019-05-14T12:18:05.449Z,3.73
2019-05-14T12:20:35.545Z,4.20
2019-05-14T12:23:08.682Z,4.00
2019-05-14T12:25:37.771Z,3.10
2019-05-14T12:28:13.257Z,3.30
2019-05-14T12:30:41.527Z,2.90
2019-05-14T12:33:11.721Z,3.07
2019-05-14T12:35:41.931Z,4.63
2019-05-14T12:38:12.433Z,4.20
2019-05-14T12:40:42.680Z,2.67
2019-05-14T12:43:12.775Z,3.37
2019-05-14T12:45:42.865Z,3.20
2019-05-14T12:48:13.859Z,3.75
2019-05-14T12:50:43.997Z,3.43
2019-05-14T12:53:14.358Z,3.85
2019-05-14T12:55:44.428Z,3.80
2019-05-14T12:58:14.887Z,4.47
2019-05-14T13:00:45.038Z,4.30
2019-05-14T13:03:15.484Z,4.00
2019-05-14T13:05:45.622Z,3.37
2019-05-14T13:08:18.277Z,3.70
2019-05-14T13:11:15.455Z,4.03
2019-05-14T13:13:43.210Z,3.27
2019-05-14T13:16:15.025Z,3.20
2019-05-14T13:18:45.518Z,3.33
2019-05-14T13:21:15.807Z,3.03
2019-05-14T13:23:48.563Z,2.50
2019-05-14T13:26:19.047Z,3.10
2019-05-14T13:28:58.920Z,3.00
2019-05-14T13:31:29.686Z,2.57
2019-05-14T13:34:04.840Z,2.80
2019-05-14T13:36:35.032Z,2.63
2019-05-14T13:39:15.214Z,3.00
2019-05-14T13:41:48.722Z,3.43
2019-05-14T13:44:24.817Z,3.70
2019-05-14T13:46:51.150Z,3.43
2019-05-14T13:49:25.928Z,4.03
2019-05-14T13:51:59.419Z,3.53
2019-05-14T13:54:32.007Z,3.57
2019-05-14T13:57:02.318Z,3.27
2019-05-14T13:59:32.778Z,3.57
2019-05-14T14:02:04.026Z,2.98
2019-05-14T14:04:34.235Z,3.40
2019-05-14T14:07:04.547Z,3.00
2019-05-14T14:09:34.921Z,2.90
2019-05-14T14:12:05.048Z,3.27
2019-05-14T14:14:35.229Z,3.00
2019-05-14T14:17:05.408Z,2.97
2019-05-14T14:19:35.711Z,2.80
2019-05-14T14:22:09.997Z,3.30
2019-05-14T14:24:39.466Z,3.10
2019-05-14T14:27:09.829Z,2.87
2019-05-14T14:29:40.360Z,3.23
2019-05-14T14:32:11.343Z,2.60
2019-05-14T14:34:41.941Z,2.23
2019-05-14T14:37:12.279Z,2.63
2019-05-14T14:39:42.398Z,3.20
2019-05-14T14:42:12.535Z,2.90
2019-05-14T14:44:42.974Z,3.47
2019-05-14T14:47:13.226Z,3.40
2019-05-14T14:49:51.165Z,3.00
2019-05-14T14:52:29.147Z,3.60
2019-05-14T14:55:06.348Z,3.57
2019-05-14T14:57:44.787Z,3.30
2019-05-14T15:00:11.551Z,3.10
2019-05-14T15:02:42.418Z,3.03
2019-05-14T15:05:14.496Z,2.90
2019-05-14T15:07:44.948Z,2.97
2019-05-14T15:10:24.429Z,2.83
2019-05-14T15:12:52.994Z,2.90
2019-05-14T15:15:23.220Z,3.03
2019-05-14T15:17:53.442Z,3.30
2019-05-14T15:20:38.021Z,3.30
2019-05-14T15:23:12.084Z,3.17
2019-05-14T15:25:48.708Z,2.97
2019-05-14T15:28:19.066Z,3.00
2019-05-14T15:30:51.599Z,2.73
2019-05-14T15:33:21.782Z,2.90
2019-05-14T15:35:52.032Z,3.17
2019-05-14T15:38:23.657Z,3.03
2019-05-14T15:40:54.057Z,2.93
2019-05-14T15:43:24.225Z,3.30
2019-05-14T15:45:54.456Z,3.33
2019-05-14T15:48:24.556Z,3.43
2019-05-14T15:50:54.629Z,3.47
2019-05-14T15:53:25.328Z,3.20
2019-05-14T15:55:57.334Z,2.97
2019-05-14T15:58:30.201Z,3.27
2019-05-14T16:01:01.320Z,2.90
2019-05-14T16:03:33.863Z,3.20
2019-05-14T16:06:04.510Z,3.17
2019-05-14T16:08:34.677Z,3.10
2019-05-14T16:11:05.976Z,3.13
2019-05-14T16:13:36.408Z,3.00
2019-05-14T16:16:10.311Z,2.70
2019-05-14T16:18:38.705Z,2.60
2019-05-14T16:21:10.540Z,2.65
2019-05-14T16:23:41.390Z,2.17
2019-05-14T16:26:12.887Z,2.90
2019-05-14T16:28:43.292Z,2.80
2019-05-14T16:31:13.608Z,2.30
2019-05-14T16:33:45.370Z,2.67
2019-05-14T16:36:15.702Z,2.40
2019-05-14T16:38:48.168Z,2.50
2019-05-14T16:41:18.464Z,3.47
2019-05-14T16:43:49.593Z,2.53
2019-05-14T16:46:20.211Z,2.47
2019-05-14T16:48:50.463Z,2.60
2019-05-14T16:51:20.667Z,3.03
2019-05-14T16:53:50.845Z,2.50
2019-05-14T16:56:20.998Z,2.80
2019-05-14T16:58:51.385Z,2.93
2019-05-14T17:01:21.610Z,2.23
2019-05-14T17:03:51.756Z,2.30
2019-05-14T17:06:21.952Z,2.20
2019-05-14T17:08:52.028Z,1.77
2019-05-14T17:11:22.438Z,2.40
2019-05-14T17:13:54.077Z,2.37
2019-05-14T17:16:24.399Z,2.70
2019-05-14T17:18:54.585Z,2.60
2019-05-14T17:21:24.776Z,2.50
2019-05-14T17:23:54.992Z,2.50
2019-05-14T17:26:25.111Z,2.30
2019-05-14T17:28:55.460Z,2.60
2019-05-14T17:31:25.659Z,2.70
2019-05-14T17:33:58.336Z,2.43
2019-05-14T17:36:28.226Z,3.00
2019-05-14T17:38:58.952Z,2.70
2019-05-14T17:41:29.053Z,2.83
2019-05-14T17:43:59.161Z,3.07
2019-05-14T17:46:29.554Z,3.30
2019-05-14T17:48:59.653Z,2.90
2019-05-14T17:51:29.855Z,2.80
2019-05-14T17:54:00.184Z,3.00
2019-05-14T17:56:31.268Z,3.00
2019-05-14T17:59:01.607Z,2.70
2019-05-14T18:01:31.775Z,2.93
2019-05-14T18:04:02.040Z,2.80
2019-05-14T18:06:32.281Z,2.90
2019-05-14T18:09:02.723Z,2.83
2019-05-14T18:11:33.634Z,2.67
2019-05-14T18:14:03.875Z,4.00
2019-05-14T18:16:34.080Z,4.60
2019-05-14T18:19:05.005Z,4.60
2019-05-14T18:21:35.366Z,5.20
2019-05-14T18:24:05.887Z,17.03
2019-05-14T18:26:38.619Z,8.40
2019-05-14T18:29:08.908Z,5.00
2019-05-14T18:31:44.515Z,5.17
2019-05-14T18:34:12.899Z,3.77
2019-05-14T18:36:43.110Z,5.77
2019-05-14T18:39:13.290Z,4.30
2019-05-14T18:41:43.674Z,3.57
2019-05-14T18:44:15.127Z,3.63
2019-05-14T18:46:48.655Z,2.67
2019-05-14T18:49:19.544Z,2.70
2019-05-14T18:51:51.681Z,3.07
2019-05-14T18:54:26.090Z,2.43
2019-05-14T18:56:56.357Z,2.60
2019-05-14T18:59:30.529Z,2.87
2019-05-14T19:01:59.496Z,2.97
2019-05-14T19:04:29.954Z,3.07
2019-05-14T19:07:01.458Z,2.93
2019-05-14T19:09:31.914Z,3.33
2019-05-14T19:12:02.174Z,3.37
2019-05-14T19:14:32.395Z,3.70
2019-05-14T19:17:02.728Z,3.63
2019-05-14T19:19:33.118Z,3.27
2019-05-14T19:22:03.328Z,2.73
2019-05-14T19:24:33.826Z,3.47
2019-05-14T19:27:05.359Z,3.80
2019-05-14T19:29:35.675Z,3.30
2019-05-14T19:32:08.228Z,3.60
2019-05-14T19:34:38.517Z,3.40
2019-05-14T19:37:10.281Z,3.93
2019-05-14T19:39:40.470Z,4.10
2019-05-14T19:42:10.699Z,4.30
2019-05-14T19:44:41.249Z,4.33
2019-05-14T19:47:12.824Z,3.80
2019-05-14T19:49:43.254Z,3.50
2019-05-14T19:52:13.487Z,3.67
2019-05-14T19:54:43.585Z,3.27
2019-05-14T19:57:13.772Z,4.10
2019-05-14T19:59:44.304Z,3.50
2019-05-14T20:02:14.375Z,3.63
2019-05-14T20:04:44.604Z,4.10
2019-05-14T20:07:14.768Z,4.00
2019-05-14T20:09:45.167Z,3.70
2019-05-14T20:12:18.059Z,3.40
2019-05-14T20:14:49.078Z,4.10
2019-05-14T20:17:19.601Z,3.30
2019-05-14T20:19:50.529Z,3.80
2019-05-14T20:22:21.060Z,3.87
2019-05-14T20:24:51.436Z,3.53
2019-05-14T20:27:22.117Z,3.63
2019-05-14T20:29:52.406Z,3.63
2019-05-14T20:32:24.140Z,3.80
2019-05-14T20:34:54.334Z,3.70
2019-05-14T20:37:24.459Z,4.07
2019-05-14T20:39:54.820Z,3.27
2019-05-14T20:42:25.460Z,3.50
2019-05-14T20:44:56.657Z,3.80
2019-05-14T20:47:28.169Z,3.10
2019-05-14T20:50:01.185Z,3.63
2019-05-14T20:52:31.335Z,3.90
2019-05-14T20:55:01.605Z,3.63
2019-05-14T20:57:33.591Z,2.90
2019-05-14T21:00:04.056Z,3.80
2019-05-14T21:02:34.739Z,3.50
2019-05-14T21:05:13.004Z,3.42
2019-05-14T21:07:38.521Z,3.90
2019-05-14T21:10:09.867Z,4.17
2019-05-14T21:12:41.100Z,3.50
2019-05-14T21:15:12.077Z,3.50
2019-05-14T21:17:42.353Z,3.30
2019-05-14T21:20:12.753Z,3.23
2019-05-14T21:22:43.222Z,3.40
2019-05-14T21:25:14.410Z,2.70
2019-05-14T21:27:48.553Z,3.53
2019-05-14T21:30:16.540Z,3.58
2019-05-14T21:32:48.365Z,3.63
2019-05-14T21:35:20.853Z,2.87
2019-05-14T21:37:51.498Z,4.00
2019-05-14T21:40:22.113Z,3.10
2019-05-14T21:42:52.439Z,3.03
2019-05-14T21:45:22.438Z,3.40
2019-05-14T21:47:52.513Z,3.83
2019-05-14T21:50:22.621Z,3.67
2019-05-14T21:52:52.782Z,4.07
2019-05-14T21:55:22.987Z,4.63
2019-05-14T21:57:57.001Z,3.90
2019-05-14T22:00:32.532Z,3.90
2019-05-14T22:03:05.499Z,4.33
2019-05-14T22:05:35.632Z,3.83
2019-05-14T22:08:08.646Z,4.00
2019-05-14T22:10:39.558Z,4.50
2019-05-14T22:13:09.776Z,4.70
2019-05-14T22:15:39.849Z,4.30
2019-05-14T22:18:17.281Z,4.70
2019-05-14T22:20:44.613Z,4.17
2019-05-14T22:23:14.993Z,4.20
2019-05-14T22:25:45.199Z,5.00
2019-05-14T22:28:18.666Z,4.40
2019-05-14T22:30:47.709Z,4.80
2019-05-14T22:33:19.094Z,4.47
2019-05-14T22:35:49.722Z,5.20
2019-05-14T22:38:20.957Z,4.03
2019-05-14T22:40:51.165Z,5.00
2019-05-14T22:43:21.362Z,4.97
2019-05-14T22:45:51.680Z,4.73
2019-05-14T22:48:21.794Z,5.30
2019-05-14T22:50:52.073Z,5.60
2019-05-14T22:53:22.377Z,5.30
2019-05-14T22:55:52.659Z,5.50
2019-05-14T22:58:25.561Z,5.30
2019-05-14T23:01:12.889Z,5.80
2019-05-14T23:03:28.898Z,5.07
2019-05-14T23:05:59.854Z,5.43
2019-05-14T23:08:30.157Z,5.67
2019-05-14T23:11:00.810Z,5.90
2019-05-14T23:13:30.918Z,4.43
2019-05-14T23:16:01.099Z,4.90
2019-05-14T23:18:31.197Z,5.20
2019-05-14T23:21:02.042Z,5.60
2019-05-14T23:23:32.238Z,5.20
2019-05-14T23:26:02.354Z,5.57
2019-05-14T23:28:42.615Z,6.33
2019-05-14T23:31:04.239Z,5.63
2019-05-14T23:33:34.602Z,5.50
2019-05-14T23:36:08.583Z,6.30
2019-05-14T23:38:39.598Z,6.40
2019-05-14T23:41:10.141Z,6.77
2019-05-14T23:43:40.223Z,6.00
2019-05-14T23:46:10.491Z,5.90
2019-05-14T23:48:40.644Z,6.10
2019-05-14T23:51:11.128Z,6.43
2019-05-14T23:53:41.289Z,6.00
2019-05-14T23:56:11.394Z,6.30
2019-05-14T23:58:54.215Z,6.90
